Time;durP1;ratioP1;P1;durP2;ratioP2;P2;SDS_P1;SDS_P2;PMS_P1;PMS_P2;Temp;Humidity;BMP_temperature;BMP_pressure;BME280_temperature;BME280_humidity;BME280_pressure;Samples;Min_cycle;Max_cycle;Signal;HPM_P1;HPM_P2
2022/03/10 00:00:07;;;;;;;22.13;12.68;;;3.20;87.40;;;;;;5103864;28;20040;-66
2022/03/10 00:02:33;;;;;;;18.65;12.40;;;3.30;87.30;;;;;;5103967;28;20052;-65
2022/03/10 00:04:59;;;;;;;19.42;12.27;;;3.20;87.80;;;;;;5103673;28;20543;-66
2022/03/10 00:07:24;;;;;;;23.83;12.98;;;3.10;88.50;;;;;;5103312;28;20118;-65
2022/03/10 00:09:50;;;;;;;23.73;13.80;;;3.00;90.30;;;;;;5103812;28;20078;-65
2022/03/10 00:12:16;;;;;;;20.40;13.00;;;2.90;90.20;;;;;;5103685;28;20439;-65
2022/03/10 00:14:42;;;;;;;21.02;12.70;;;2.90;90.60;;;;;;5103736;28;20048;-66
2022/03/10 00:17:08;;;;;;;24.92;13.35;;;2.90;91.50;;;;;;5103704;28;20047;-65
2022/03/10 00:19:34;;;;;;;21.90;12.63;;;2.90;91.90;;;;;;5103470;28;20066;-66
2022/03/10 00:22:00;;;;;;;19.67;12.73;;;2.90;92.40;;;;;;5104152;28;20051;-66
2022/03/10 00:24:25;;;;;;;19.30;12.32;;;2.80;92.60;;;;;;5107502;28;20040;-65
2022/03/10 00:26:51;;;;;;;27.60;13.25;;;2.60;92.80;;;;;;5107333;28;20048;-65
2022/03/10 00:29:17;;;;;;;18.55;13.32;;;2.70;93.70;;;;;;5107457;28;20059;-65
2022/03/10 00:31:43;;;;;;;28.75;14.35;;;2.60;93.70;;;;;;5107132;28;20093;-65
2022/03/10 00:34:09;;;;;;;29.15;13.02;;;2.60;93.80;;;;;;5107294;28;20044;-65
2022/03/10 00:36:35;;;;;;;20.23;12.85;;;2.70;94.50;;;;;;5106654;28;20123;-64
2022/03/10 00:39:01;;;;;;;21.23;11.98;;;2.60;94.80;;;;;;5107114;28;20047;-64
2022/03/10 00:41:27;;;;;;;19.73;13.45;;;2.60;95.20;;;;;;5106891;28;20577;-64
2022/03/10 00:43:52;;;;;;;19.88;11.93;;;2.70;95.00;;;;;;5107107;28;20056;-65
2022/03/10 00:46:18;;;;;;;22.73;11.85;;;2.60;94.90;;;;;;5107334;28;20106;-65
2022/03/10 00:48:44;;;;;;;21.70;11.63;;;2.70;94.90;;;;;;5106717;28;20097;-65
2022/03/10 00:51:09;;;;;;;21.27;11.52;;;2.70;94.50;;;;;;5106267;28;20048;-65
2022/03/10 00:53:35;;;;;;;20.80;12.05;;;2.70;94.80;;;;;;5106991;28;20084;-64
2022/03/10 00:56:01;;;;;;;22.92;12.40;;;2.70;95.00;;;;;;5106521;28;20040;-65
2022/03/10 00:58:27;;;;;;;19.85;12.15;;;2.60;95.50;;;;;;5106879;28;20037;-64
2022/03/10 01:00:53;;;;;;;20.27;12.10;;;2.60;95.10;;;;;;5106787;28;20044;-64
2022/03/10 01:03:20;;;;;;;22.23;12.30;;;2.60;95.20;;;;;;5106323;28;20092;-65
2022/03/10 01:05:46;;;;;;;18.33;12.27;;;2.60;95.70;;;;;;5106829;28;20498;-65
2022/03/10 01:08:13;;;;;;;20.42;12.02;;;2.60;95.60;;;;;;5106080;28;20127;-65
2022/03/10 01:10:39;;;;;;;25.63;12.73;;;2.50;95.60;;;;;;5106552;28;20050;-64
2022/03/10 01:13:15;;;;;;;20.73;11.85;;;2.40;95.60;;;;;;5106656;28;20044;-66
2022/03/10 01:15:41;;;;;;;22.55;12.77;;;2.60;96.00;;;;;;5103620;28;20074;-66
2022/03/10 01:18:08;;;;;;;18.92;12.32;;;2.50;95.90;;;;;;5086049;28;20048;-65
2022/03/10 01:20:34;;;;;;;22.33;12.52;;;2.40;96.20;;;;;;5084182;28;20048;-65
2022/03/10 01:22:59;;;;;;;16.95;11.93;;;2.30;96.50;;;;;;5085374;28;20498;-65
2022/03/10 01:25:25;;;;;;;20.75;12.13;;;2.30;96.90;;;;;;5086222;28;20036;-65
2022/03/10 01:27:51;;;;;;;21.20;13.20;;;2.30;96.80;;;;;;5085660;28;20067;-64
2022/03/10 01:30:16;;;;;;;19.17;11.98;;;2.40;97.40;;;;;;5094597;28;20478;-65
2022/03/10 01:32:44;;;;;;;25.25;12.43;;;2.30;97.40;;;;;;5105830;28;20118;-64
2022/03/10 01:35:10;;;;;;;19.52;11.77;;;2.30;97.60;;;;;;5103819;28;20055;-64
2022/03/10 01:37:39;;;;;;;24.40;12.27;;;2.30;97.70;;;;;;5105719;28;20042;-64
2022/03/10 01:40:07;;;;;;;30.10;13.20;;;2.30;97.80;;;;;;5106032;28;20071;-64
2022/03/10 01:42:33;;;;;;;20.65;12.35;;;2.40;98.00;;;;;;5105560;28;20113;-64
2022/03/10 01:44:59;;;;;;;20.83;13.40;;;2.40;97.70;;;;;;5105929;28;20056;-64
2022/03/10 01:47:25;;;;;;;25.10;13.07;;;2.40;98.00;;;;;;5105710;28;20039;-64
2022/03/10 01:49:51;;;;;;;19.00;12.57;;;2.40;98.20;;;;;;5105673;28;20134;-64
2022/03/10 01:52:18;;;;;;;20.05;13.02;;;2.20;98.60;;;;;;5105245;28;20044;-65
2022/03/10 01:54:44;;;;;;;20.50;12.38;;;2.20;98.90;;;;;;5105893;28;20044;-65
2022/03/10 01:57:11;;;;;;;18.85;11.82;;;2.20;99.50;;;;;;5105575;28;20135;-65
2022/03/10 01:59:38;;;;;;;18.25;12.25;;;2.20;99.80;;;;;;5105698;28;20047;-64
2022/03/10 02:02:04;;;;;;;24.47;13.10;;;2.10;99.70;;;;;;5105618;28;20136;-64
2022/03/10 02:04:30;;;;;;;18.77;12.98;;;2.10;99.90;;;;;;5104308;28;20185;-64
2022/03/10 02:06:55;;;;;;;17.90;12.65;;;2.00;99.90;;;;;;5104899;28;20036;-64
2022/03/10 02:12:07;;;;;;;26.42;13.68;;;2.00;99.90;;;;;;5105226;28;20054;-64
2022/03/10 02:17:21;;;;;;;19.88;12.13;;;1.80;99.90;;;;;;5105317;28;20051;-64
2022/03/10 02:19:52;;;;;;;20.25;12.10;;;1.80;99.90;;;;;;5105160;28;20044;-64
2022/03/10 02:22:20;;;;;;;20.38;12.38;;;1.80;99.90;;;;;;5104207;28;20040;-64
2022/03/10 02:24:47;;;;;;;23.45;13.65;;;1.90;99.90;;;;;;5105193;28;20051;-65
2022/03/10 02:27:24;;;;;;;23.88;12.45;;;1.80;99.90;;;;;;5105005;28;20048;-65
2022/03/10 02:29:52;;;;;;;20.50;12.40;;;1.70;99.90;;;;;;5104889;28;20062;-65
2022/03/10 02:32:19;;;;;;;23.98;13.30;;;1.70;99.90;;;;;;5103583;28;20067;-65
2022/03/10 02:34:46;;;;;;;24.97;13.37;;;1.70;99.90;;;;;;5105033;28;20058;-64
2022/03/10 02:37:12;;;;;;;21.55;11.85;;;1.70;99.90;;;;;;5104316;28;20483;-65
2022/03/10 02:39:39;;;;;;;20.95;12.70;;;1.70;99.90;;;;;;5104660;28;20055;-64
2022/03/10 02:42:06;;;;;;;20.60;13.50;;;1.80;99.90;;;;;;5104584;28;20059;-64
2022/03/10 02:44:32;;;;;;;20.63;12.93;;;1.80;99.90;;;;;;5104779;28;20073;-64
2022/03/10 02:46:58;;;;;;;20.70;12.32;;;1.80;99.90;;;;;;5105037;28;20040;-64
2022/03/10 02:49:24;;;;;;;25.88;13.38;;;1.70;99.90;;;;;;5104497;28;20061;-64
2022/03/10 02:51:50;;;;;;;18.52;12.02;;;1.80;99.90;;;;;;5103803;28;20042;-64
2022/03/10 02:54:16;;;;;;;24.10;12.68;;;1.80;99.90;;;;;;5104409;28;20051;-64
2022/03/10 02:56:42;;;;;;;21.23;14.02;;;1.80;99.90;;;;;;5104308;28;20043;-64
2022/03/10 02:59:09;;;;;;;21.05;12.88;;;1.70;99.90;;;;;;5104685;28;20048;-64
2022/03/10 03:01:34;;;;;;;24.02;12.88;;;1.70;99.90;;;;;;5102823;28;20048;-65
2022/03/10 03:04:00;;;;;;;18.67;12.50;;;1.70;99.90;;;;;;5104142;28;20043;-64
2022/03/10 03:06:25;;;;;;;23.15;13.88;;;1.60;99.90;;;;;;5103749;28;20047;-65
2022/03/10 03:08:51;;;;;;;23.58;12.70;;;1.70;99.90;;;;;;5104252;28;20048;-64
2022/03/10 03:11:17;;;;;;;20.52;13.75;;;1.70;99.90;;;;;;5104211;28;20059;-64
2022/03/10 03:13:42;;;;;;;28.70;14.85;;;1.50;99.90;;;;;;5104427;28;20043;-64
2022/03/10 03:16:08;;;;;;;22.10;12.95;;;1.50;99.90;;;;;;5103806;28;20044;-64
2022/03/10 03:18:34;;;;;;;25.98;13.18;;;1.50;99.90;;;;;;5103757;28;20042;-64
2022/03/10 03:21:01;;;;;;;22.67;13.02;;;1.60;99.90;;;;;;5103512;28;20044;-64
2022/03/10 03:23:27;;;;;;;29.90;13.50;;;1.60;99.90;;;;;;5104427;28;20044;-64
2022/03/10 03:25:53;;;;;;;23.52;13.75;;;1.70;99.90;;;;;;5104425;28;20040;-64
2022/03/10 03:28:21;;;;;;;21.08;13.63;;;1.70;99.90;;;;;;5104180;28;20095;-64
2022/03/10 03:30:47;;;;;;;;;;;1.70;99.90;;;;;;5104689;28;20492;-64
2022/03/10 03:33:13;;;;;;;27.98;14.30;;;1.70;99.90;;;;;;5104431;28;19927;-64
2022/03/10 03:35:38;;;;;;;16.73;11.80;;;1.60;99.90;;;;;;5103965;28;20044;-64
2022/03/10 03:38:04;;;;;;;25.40;15.50;;;1.70;99.90;;;;;;5103943;28;20062;-64
2022/03/10 03:40:30;;;;;;;21.80;14.18;;;1.60;99.90;;;;;;5103930;28;20117;-65
2022/03/10 03:42:55;;;;;;;23.10;13.43;;;1.60;99.90;;;;;;5103931;28;20072;-64
2022/03/10 03:45:22;;;;;;;21.38;13.88;;;1.70;99.90;;;;;;5104066;28;20415;-64
2022/03/10 03:47:48;;;;;;;22.13;14.05;;;1.70;99.90;;;;;;5104191;28;20036;-64
2022/03/10 03:50:14;;;;;;;22.92;13.05;;;1.70;99.90;;;;;;5104060;28;20058;-64
2022/03/10 03:52:40;;;;;;;21.08;12.23;;;1.80;99.90;;;;;;5103346;28;20150;-64
2022/03/10 03:55:06;;;;;;;22.27;13.20;;;1.70;99.90;;;;;;5104045;28;20044;-64
2022/03/10 03:57:32;;;;;;;21.35;12.48;;;1.60;99.90;;;;;;5105588;28;20125;-64
2022/03/10 03:59:57;;;;;;;22.80;13.70;;;1.50;99.90;;;;;;5107746;28;20067;-64
2022/03/10 04:02:23;;;;;;;22.50;12.98;;;1.40;99.90;;;;;;5107898;28;20063;-65
2022/03/10 04:04:49;;;;;;;22.20;13.35;;;1.30;99.90;;;;;;5107699;28;20409;-64
2022/03/10 04:07:15;;;;;;;19.80;14.07;;;1.30;99.90;;;;;;5107272;28;20044;-64
2022/03/10 04:09:41;;;;;;;19.73;13.82;;;1.30;99.90;;;;;;5107772;28;20059;-64
2022/03/10 04:12:07;;;;;;;21.00;12.80;;;1.20;99.90;;;;;;5107680;28;20044;-64
2022/03/10 04:14:33;;;;;;;19.48;12.85;;;1.20;99.90;;;;;;5107623;28;20044;-64
2022/03/10 04:16:58;;;;;;;23.23;14.23;;;1.30;99.90;;;;;;5107928;28;20043;-64
2022/03/10 04:19:24;;;;;;;19.25;13.60;;;1.20;99.90;;;;;;5107198;28;20100;-64
2022/03/10 04:21:50;;;;;;;23.50;13.35;;;1.30;99.90;;;;;;5106902;28;20134;-64
2022/03/10 04:24:15;;;;;;;19.58;11.50;;;1.30;99.90;;;;;;5107605;28;20055;-64
2022/03/10 04:26:42;;;;;;;20.42;12.20;;;1.40;99.90;;;;;;5107399;28;20040;-64
2022/03/10 04:29:07;;;;;;;23.77;12.30;;;1.50;99.90;;;;;;5107382;28;20097;-64
2022/03/10 04:31:33;;;;;;;22.75;13.40;;;1.50;99.90;;;;;;5107246;28;20048;-64
2022/03/10 04:33:59;;;;;;;21.08;13.02;;;1.50;99.90;;;;;;5107273;28;20040;-64
2022/03/10 04:36:24;;;;;;;17.77;12.38;;;1.50;99.90;;;;;;5106894;28;20074;-64
2022/03/10 04:38:51;;;;;;;25.02;13.57;;;1.50;99.90;;;;;;5107215;28;20566;-64
2022/03/10 04:41:16;;;;;;;21.65;12.38;;;1.50;99.90;;;;;;5107272;28;20051;-64
2022/03/10 04:43:42;;;;;;;20.30;12.65;;;1.50;99.90;;;;;;5106928;28;20047;-64
2022/03/10 04:46:08;;;;;;;26.52;13.25;;;1.50;99.90;;;;;;5107028;28;20066;-65
2022/03/10 04:48:34;;;;;;;19.05;12.43;;;1.50;99.90;;;;;;5106811;28;20048;-65
2022/03/10 04:51:00;;;;;;;19.52;12.30;;;1.50;99.90;;;;;;5106236;28;20040;-64
2022/03/10 04:53:26;;;;;;;20.60;12.38;;;1.50;99.90;;;;;;5107417;28;20488;-64
2022/03/10 04:55:52;;;;;;;22.60;12.55;;;1.50;99.90;;;;;;5088714;28;20080;-64
2022/03/10 04:58:18;;;;;;;24.27;13.35;;;1.40;99.90;;;;;;5106782;28;20065;-64
2022/03/10 05:00:43;;;;;;;22.27;13.10;;;1.60;99.90;;;;;;5106835;28;20043;-64
2022/03/10 05:03:09;;;;;;;20.50;12.85;;;1.50;99.90;;;;;;5106756;28;20070;-64
2022/03/10 05:05:35;;;;;;;21.92;12.75;;;1.40;99.90;;;;;;5106621;28;20068;-64
2022/03/10 05:08:00;;;;;;;21.98;12.18;;;1.50;99.90;;;;;;5106161;28;20039;-64
2022/03/10 05:10:26;;;;;;;18.25;12.25;;;1.60;99.60;;;;;;5106646;28;20047;-64
2022/03/10 05:12:54;;;;;;;18.42;12.50;;;1.60;99.90;;;;;;5106444;28;20036;-63
2022/03/10 05:15:20;;;;;;;;;;;1.50;99.80;;;;;;5106888;28;20099;-64
2022/03/10 05:17:46;;;;;;;23.98;12.05;;;1.50;99.70;;;;;;5106529;28;19967;-64
2022/03/10 05:20:12;;;;;;;21.25;11.88;;;1.60;99.30;;;;;;5106233;28;20523;-64
2022/03/10 05:22:43;;;;;;;22.02;12.45;;;1.60;99.50;;;;;;5105782;28;20050;-64
2022/03/10 05:25:09;;;;;;;24.15;12.50;;;1.50;99.60;;;;;;5106347;28;20531;-64
2022/03/10 05:27:35;;;;;;;18.67;12.10;;;1.60;99.60;;;;;;5106091;28;20047;-64
2022/03/10 05:30:01;;;;;;;16.80;11.38;;;1.60;99.00;;;;;;5106129;28;20093;-65
2022/03/10 05:32:27;;;;;;;22.88;12.20;;;1.60;99.00;;;;;;5106467;28;20040;-65
2022/03/10 05:34:52;;;;;;;20.60;11.52;;;1.50;99.40;;;;;;5105799;28;20126;-65
2022/03/10 05:37:18;;;;;;;22.10;12.80;;;1.50;99.30;;;;;;5105369;28;20097;-64
2022/03/10 05:39:44;;;;;;;20.52;10.52;;;1.50;99.20;;;;;;5105407;28;20085;-65
2022/03/10 05:42:09;;;;;;;22.85;12.60;;;1.40;99.30;;;;;;5105358;28;20088;-65
2022/03/10 05:44:35;;;;;;;20.73;12.80;;;1.50;99.20;;;;;;5105960;28;20077;-65
2022/03/10 05:47:01;;;;;;;20.30;12.38;;;1.40;99.60;;;;;;5105707;28;20047;-64
2022/03/10 05:49:26;;;;;;;20.27;11.90;;;1.30;99.70;;;;;;5105260;28;20063;-64
2022/03/10 05:51:52;;;;;;;22.23;13.05;;;1.30;99.90;;;;;;5105049;28;20040;-64
2022/03/10 05:54:17;;;;;;;17.75;11.73;;;1.40;99.70;;;;;;5105609;28;20075;-65
2022/03/10 05:56:43;;;;;;;19.88;12.25;;;1.30;99.50;;;;;;5105836;28;20391;-65
2022/03/10 05:59:09;;;;;;;18.55;12.15;;;1.40;99.70;;;;;;5105333;28;20071;-64
2022/03/10 06:01:34;;;;;;;25.83;13.07;;;1.30;99.90;;;;;;5105387;28;20422;-64
2022/03/10 06:04:00;;;;;;;20.02;12.65;;;1.20;99.90;;;;;;5105126;28;20573;-64
2022/03/10 06:06:26;;;;;;;25.38;12.90;;;1.20;99.90;;;;;;5104816;28;20554;-65
2022/03/10 06:08:51;;;;;;;22.63;13.63;;;1.10;99.90;;;;;;5105717;28;20513;-65
2022/03/10 06:11:17;;;;;;;20.23;13.13;;;1.00;99.90;;;;;;5104967;28;20090;-64
2022/03/10 06:13:43;;;;;;;20.40;11.98;;;1.10;99.90;;;;;;5104897;28;20043;-64
2022/03/10 06:16:08;;;;;;;29.25;14.05;;;1.10;99.90;;;;;;5105133;28;20048;-64
2022/03/10 06:18:34;;;;;;;24.05;12.65;;;1.00;99.90;;;;;;5105269;28;20052;-64
2022/03/10 06:21:00;;;;;;;21.85;12.60;;;1.00;99.90;;;;;;5103979;28;20070;-64
2022/03/10 06:23:26;;;;;;;23.10;13.50;;;1.00;99.90;;;;;;5104980;28;20040;-64
2022/03/10 06:25:52;;;;;;;22.90;12.13;;;1.10;99.90;;;;;;5104761;28;20055;-64
2022/03/10 06:28:18;;;;;;;23.83;13.73;;;1.20;99.90;;;;;;5104869;28;20036;-64
2022/03/10 06:30:43;;;;;;;22.80;12.18;;;1.30;99.90;;;;;;5104885;28;20048;-64
2022/03/10 06:33:09;;;;;;;25.90;13.02;;;1.30;99.90;;;;;;5104843;28;20040;-64
2022/03/10 06:35:35;;;;;;;25.23;11.75;;;1.40;99.90;;;;;;5104881;28;20246;-64
2022/03/10 06:38:00;;;;;;;28.15;14.02;;;1.40;99.90;;;;;;5104688;28;20048;-64
2022/03/10 06:40:27;;;;;;;23.05;13.18;;;1.50;99.90;;;;;;5104835;28;20103;-65
2022/03/10 06:42:53;;;;;;;20.13;11.95;;;1.50;99.90;;;;;;5104196;28;20078;-65
2022/03/10 06:45:19;;;;;;;24.88;12.57;;;1.50;99.90;;;;;;5104783;28;20040;-65
2022/03/10 06:47:44;;;;;;;22.33;12.98;;;1.60;99.90;;;;;;5105003;28;20082;-65
2022/03/10 06:50:10;;;;;;;26.90;12.13;;;1.80;99.70;;;;;;5104302;28;20048;-65
2022/03/10 06:52:36;;;;;;;29.67;12.10;;;1.80;99.70;;;;;;5104071;28;20046;-64
2022/03/10 06:55:02;;;;;;;25.23;12.98;;;1.80;99.30;;;;;;5104621;28;20044;-64
2022/03/10 06:57:28;;;;;;;26.58;14.15;;;1.90;99.00;;;;;;5103062;28;20101;-64
2022/03/10 06:59:53;;;;;;;24.50;12.25;;;1.90;99.10;;;;;;5104898;28;20040;-64
2022/03/10 07:02:19;;;;;;;29.33;13.85;;;1.90;99.30;;;;;;5104193;28;20103;-64
2022/03/10 07:04:44;;;;;;;19.55;12.57;;;2.00;98.90;;;;;;5103661;28;20047;-64
2022/03/10 07:07:11;;;;;;;19.13;12.70;;;2.00;99.10;;;;;;5103663;28;20047;-65
2022/03/10 07:09:37;;;;;;;24.08;13.15;;;2.10;98.90;;;;;;5104439;28;20062;-65
2022/03/10 07:12:03;;;;;;;21.33;10.85;;;2.20;98.60;;;;;;5104522;28;20040;-64
2022/03/10 07:14:28;;;;;;;19.20;12.38;;;2.20;98.80;;;;;;5103917;28;20494;-64
2022/03/10 07:16:54;;;;;;;27.95;12.07;;;2.30;98.80;;;;;;5104276;28;20071;-64
2022/03/10 07:19:20;;;;;;;18.33;11.82;;;2.30;98.70;;;;;;5103879;28;20043;-64
2022/03/10 07:21:46;;;;;;;17.13;11.57;;;2.40;98.30;;;;;;5103693;28;20102;-64
2022/03/10 07:24:12;;;;;;;22.52;12.63;;;2.50;98.20;;;;;;5104376;28;20115;-64
2022/03/10 07:26:38;;;;;;;18.73;12.48;;;2.60;97.80;;;;;;5104176;28;20526;-65
2022/03/10 07:29:04;;;;;;;19.23;11.95;;;2.70;98.00;;;;;;5104034;28;20036;-64
2022/03/10 07:31:31;;;;;;;24.20;12.13;;;2.70;97.70;;;;;;5104270;28;20048;-64
2022/03/10 07:33:57;;;;;;;21.88;11.73;;;2.80;97.50;;;;;;5108054;28;20051;-65
2022/03/10 07:36:23;;;;;;;18.27;11.43;;;3.00;97.10;;;;;;5108149;28;20044;-64
2022/03/10 07:38:49;;;;;;;19.02;12.80;;;3.00;97.10;;;;;;5108354;28;20048;-64
2022/03/10 07:41:14;;;;;;;22.58;11.38;;;3.20;96.40;;;;;;5107992;28;20040;-64
2022/03/10 07:43:40;;;;;;;21.60;11.65;;;3.20;96.50;;;;;;5106545;28;20066;-64
2022/03/10 07:46:06;;;;;;;22.67;12.05;;;3.30;96.60;;;;;;5108196;28;20444;-64
2022/03/10 07:48:35;;;;;;;20.58;11.40;;;3.40;96.70;;;;;;5108299;28;20102;-64
2022/03/10 07:51:01;;;;;;;21.58;12.80;;;3.50;95.60;;;;;;5107395;28;20035;-64
2022/03/10 07:53:26;;;;;;;22.50;13.10;;;3.60;96.10;;;;;;5107970;28;20051;-64
2022/03/10 07:55:55;;;;;;;23.98;14.23;;;3.70;94.90;;;;;;5107716;28;20036;-64
2022/03/10 07:58:25;;;;;;;21.27;11.95;;;3.80;94.60;;;;;;5107904;28;20110;-66
2022/03/10 08:00:54;;;;;;;20.40;11.93;;;3.90;94.10;;;;;;5106157;28;20063;-64
2022/03/10 08:03:21;;;;;;;23.60;13.30;;;4.00;93.60;;;;;;5108101;28;20044;-64
2022/03/10 08:05:48;;;;;;;19.90;12.23;;;4.10;92.40;;;;;;5107482;28;20059;-64
2022/03/10 08:08:13;;;;;;;23.35;12.88;;;4.20;91.60;;;;;;5107453;28;20122;-65
2022/03/10 08:10:40;;;;;;;18.33;12.02;;;4.30;91.50;;;;;;5107660;28;20419;-65
2022/03/10 08:13:06;;;;;;;17.77;11.75;;;4.40;91.00;;;;;;5107670;28;20051;-65
2022/03/10 08:15:31;;;;;;;19.55;11.32;;;4.50;91.10;;;;;;5106366;28;20044;-64
2022/03/10 08:17:57;;;;;;;19.15;11.38;;;4.60;90.50;;;;;;5107553;28;20051;-65
2022/03/10 08:20:23;;;;;;;19.30;11.98;;;4.70;90.90;;;;;;5107149;28;20044;-64
2022/03/10 08:22:49;;;;;;;23.10;11.80;;;4.80;91.50;;;;;;5106913;28;20439;-65
2022/03/10 08:25:17;;;;;;;21.15;12.63;;;4.90;91.10;;;;;;5107260;28;20108;-65
2022/03/10 08:27:43;;;;;;;17.95;11.57;;;5.10;88.50;;;;;;5107330;28;20100;-65
2022/03/10 08:30:13;;;;;;;20.27;12.57;;;5.20;86.40;;;;;;5107670;28;20087;-65
2022/03/10 08:32:40;;;;;;;21.88;12.75;;;5.30;87.50;;;;;;5107305;28;20036;-64
2022/03/10 08:35:06;;;;;;;20.25;11.85;;;5.40;84.60;;;;;;5107092;28;20419;-65
2022/03/10 08:37:32;;;;;;;22.80;12.65;;;5.60;84.00;;;;;;5106576;28;20052;-65
2022/03/10 08:39:58;;;;;;;22.05;12.07;;;5.70;83.00;;;;;;5106877;28;20131;-65
2022/03/10 08:42:23;;;;;;;21.95;11.50;;;5.80;81.10;;;;;;5106733;28;20056;-65
2022/03/10 08:44:49;;;;;;;21.48;11.68;;;5.80;82.60;;;;;;5107156;28;20120;-64
2022/03/10 08:47:15;;;;;;;19.73;11.57;;;6.00;79.50;;;;;;5106752;28;20085;-64
2022/03/10 08:49:41;;;;;;;22.83;12.43;;;6.10;78.60;;;;;;5106760;28;20109;-65
2022/03/10 08:52:07;;;;;;;20.88;12.32;;;6.20;78.10;;;;;;5106222;28;20051;-66
2022/03/10 08:54:32;;;;;;;23.75;12.95;;;6.40;78.10;;;;;;5107317;28;20048;-65
2022/03/10 08:56:58;;;;;;;21.02;11.68;;;6.50;76.50;;;;;;5106552;28;20087;-65
2022/03/10 08:59:24;;;;;;;18.55;12.70;;;6.70;76.70;;;;;;5106598;28;20077;-66
2022/03/10 09:01:49;;;;;;;18.85;11.93;;;6.70;75.60;;;;;;5106641;28;20155;-64
2022/03/10 09:04:16;;;;;;;25.48;12.98;;;6.90;77.20;;;;;;5106449;28;20070;-64
2022/03/10 09:06:42;;;;;;;23.20;11.77;;;7.00;76.30;;;;;;5106469;28;20048;-65
2022/03/10 09:09:07;;;;;;;18.80;11.82;;;7.30;74.40;;;;;;5106818;28;20040;-65
2022/03/10 09:11:33;;;;;;;19.40;11.30;;;7.30;75.20;;;;;;5106348;28;20098;-65
2022/03/10 09:13:59;;;;;;;20.33;11.65;;;7.50;75.10;;;;;;5106624;28;20216;-65
2022/03/10 09:16:25;;;;;;;17.73;12.07;;;7.60;75.20;;;;;;5106531;28;20377;-64
2022/03/10 09:18:51;;;;;;;16.63;11.68;;;7.70;73.70;;;;;;5106470;28;20621;-65
2022/03/10 09:21:18;;;;;;;22.80;11.82;;;7.90;73.20;;;;;;5105547;28;20052;-65
2022/03/10 09:23:44;;;;;;;24.17;11.38;;;7.90;71.70;;;;;;5106271;28;20051;-66
2022/03/10 09:26:10;;;;;;;21.58;11.23;;;8.20;71.20;;;;;;5106201;28;20529;-65
2022/03/10 09:28:36;;;;;;;17.88;11.82;;;8.30;71.80;;;;;;5106452;28;20040;-65
2022/03/10 09:31:01;;;;;;;17.80;11.25;;;8.40;70.20;;;;;;5106395;28;20040;-65
2022/03/10 09:33:27;;;;;;;17.27;11.23;;;8.50;70.50;;;;;;5106166;28;20054;-65
2022/03/10 09:35:53;;;;;;;26.95;13.80;;;8.60;69.40;;;;;;5105059;28;20142;-65
2022/03/10 09:38:19;;;;;;;15.40;11.02;;;8.70;67.80;;;;;;5106095;28;20078;-66
2022/03/10 09:40:52;;;;;;;14.90;11.18;;;8.80;67.30;;;;;;5105937;28;20044;-65
2022/03/10 09:43:21;;;;;;;30.60;12.27;;;8.80;67.70;;;;;;5105892;28;20105;-64
2022/03/10 09:45:48;;;;;;;20.85;12.55;;;9.10;66.30;;;;;;5104352;28;20051;-64
2022/03/10 09:48:13;;;;;;;18.83;11.02;;;9.00;66.90;;;;;;5105795;28;20047;-66
2022/03/10 09:50:40;;;;;;;16.13;11.43;;;9.20;66.20;;;;;;5105349;28;20040;-66
2022/03/10 09:53:05;;;;;;;19.42;11.40;;;9.30;65.00;;;;;;5105031;28;20104;-65
2022/03/10 09:55:31;;;;;;;19.83;11.52;;;9.40;65.80;;;;;;5104842;28;20056;-65
2022/03/10 09:58:01;;;;;;;17.70;11.43;;;9.60;62.60;;;;;;5105903;28;20044;-67
2022/03/10 10:00:27;;;;;;;22.85;11.57;;;9.60;63.30;;;;;;5105602;28;20521;-66
2022/03/10 10:02:53;;;;;;;23.98;11.68;;;9.80;62.30;;;;;;5105438;28;20051;-65
2022/03/10 10:05:22;;;;;;;18.92;11.18;;;9.80;63.10;;;;;;5105210;28;20040;-65
2022/03/10 10:08:13;;;;;;;18.30;11.05;;;10.00;61.50;;;;;;5104903;28;20046;-65
2022/03/10 10:10:47;;;;;;;24.40;11.70;;;10.20;60.70;;;;;;5105657;28;20569;-65
2022/03/10 10:13:26;;;;;;;20.90;11.30;;;10.30;57.40;;;;;;5104509;28;20047;-64
2022/03/10 10:15:59;;;;;;;23.17;12.32;;;;;;;;;;5105502;28;20059;-64
2022/03/10 10:18:27;;;;;;;18.10;11.15;;;10.30;56.30;;;;;;5105265;28;20112;-65
2022/03/10 10:20:54;;;;;;;20.58;11.40;;;10.30;57.90;;;;;;5104455;28;20059;-65
2022/03/10 10:23:28;;;;;;;18.50;10.98;;;10.50;58.20;;;;;;5105182;28;20044;-65
2022/03/10 10:25:59;;;;;;;16.60;10.57;;;10.60;56.30;;;;;;5105203;28;20435;-65
2022/03/10 10:28:36;;;;;;;16.00;10.85;;;10.70;55.40;;;;;;5105164;28;20071;-65
2022/03/10 10:31:06;;;;;;;18.50;11.23;;;10.70;55.80;;;;;;5105116;28;20055;-65
2022/03/10 10:33:35;;;;;;;19.30;11.15;;;10.70;53.40;;;;;;5105101;28;20039;-66
2022/03/10 10:36:18;;;;;;;16.02;11.20;;;10.80;53.40;;;;;;5104061;28;20081;-65
2022/03/10 10:38:48;;;;;;;16.02;11.27;;;10.90;53.20;;;;;;5104631;28;20051;-65
2022/03/10 10:41:28;;;;;;;18.45;11.18;;;11.10;52.70;;;;;;5104691;28;20097;-65
2022/03/10 10:44:08;;;;;;;19.67;11.85;;;11.10;53.30;;;;;;5104483;28;20083;-65
2022/03/10 10:46:38;;;;;;;;;;;11.20;52.80;;;;;;5104906;28;20051;-65
2022/03/10 10:49:08;;;;;;;15.77;11.32;;;11.30;52.60;;;;;;5104738;28;19920;-65
2022/03/10 10:51:45;;;;;;;22.67;11.50;;;11.40;53.60;;;;;;5102754;28;20048;-65
2022/03/10 10:54:24;;;;;;;20.80;11.30;;;11.40;51.60;;;;;;5104659;28;20044;-65
2022/03/10 10:56:57;;;;;;;21.02;12.27;;;11.40;52.20;;;;;;5104447;28;20047;-66
2022/03/10 10:59:28;;;;;;;21.98;12.15;;;11.40;52.20;;;;;;5104490;28;20098;-65
2022/03/10 11:02:20;;;;;;;21.40;11.80;;;11.40;51.60;;;;;;5104175;28;20047;-65
2022/03/10 11:04:47;;;;;;;22.92;11.23;;;11.60;52.20;;;;;;5104017;28;20043;-65
2022/03/10 11:07:14;;;;;;;16.10;10.48;;;11.70;51.40;;;;;;5103007;28;20127;-65
2022/03/10 11:09:42;;;;;;;17.17;11.90;;;11.70;52.80;;;;;;5104475;28;20044;-65
2022/03/10 11:12:09;;;;;;;16.08;11.18;;;11.80;52.50;;;;;;5104403;28;20040;-66
2022/03/10 11:14:36;;;;;;;17.83;12.48;;;11.80;52.00;;;;;;5104123;28;20059;-66
2022/03/10 11:17:02;;;;;;;15.20;11.15;;;12.00;51.70;;;;;;5103879;28;21122;-66
2022/03/10 11:19:32;;;;;;;20.27;11.85;;;12.20;50.60;;;;;;5103002;28;20134;-65
2022/03/10 11:22:16;;;;;;;17.50;10.65;;;12.20;50.60;;;;;;5103545;28;20044;-65
2022/03/10 11:25:03;;;;;;;18.10;11.55;;;12.30;50.40;;;;;;5102755;28;20075;-65
2022/03/10 11:27:58;;;;;;;19.77;11.88;;;12.40;49.20;;;;;;5104048;28;20534;-65
2022/03/10 11:30:29;;;;;;;17.58;11.80;;;12.60;47.70;;;;;;5103989;28;20040;-65
2022/03/10 11:33:12;;;;;;;20.00;12.30;;;12.60;46.90;;;;;;5104128;28;20106;-65
2022/03/10 11:35:46;;;;;;;20.38;12.13;;;12.70;47.50;;;;;;5103502;28;20037;-64
2022/03/10 11:38:14;;;;;;;20.25;11.93;;;12.80;45.80;;;;;;5103769;28;20090;-64
2022/03/10 11:40:48;;;;;;;18.15;12.15;;;12.90;45.80;;;;;;5104233;28;20040;-64
2022/03/10 11:43:36;;;;;;;18.33;12.65;;;12.90;45.50;;;;;;5104071;28;20048;-64
2022/03/10 11:46:19;;;;;;;19.40;12.30;;;13.10;46.10;;;;;;5103917;28;20530;-64
2022/03/10 11:49:01;;;;;;;17.73;12.05;;;13.20;45.70;;;;;;5104063;28;20059;-65
2022/03/10 11:51:50;;;;;;;17.02;10.82;;;;;;;;;;5103580;28;20040;-64
2022/03/10 11:54:24;;;;;;;17.65;12.23;;;14.50;44.10;;;;;;5104101;28;20081;-67
2022/03/10 11:56:50;;;;;;;16.88;11.32;;;14.60;42.50;;;;;;5103765;28;20101;-66
2022/03/10 11:59:18;;;;;;;21.30;12.00;;;15.10;41.60;;;;;;5103841;28;20445;-65
2022/03/10 12:01:44;;;;;;;15.98;12.00;;;15.20;40.50;;;;;;5103871;28;20504;-65
2022/03/10 12:04:17;;;;;;;18.20;12.60;;;15.70;41.00;;;;;;5103410;28;20055;-65
2022/03/10 12:06:57;;;;;;;16.83;11.15;;;15.90;38.80;;;;;;5103384;28;20045;-67
2022/03/10 12:09:34;;;;;;;17.20;12.45;;;16.20;40.90;;;;;;5103746;28;20055;-66
2022/03/10 12:12:25;;;;;;;18.13;11.35;;;16.60;39.60;;;;;;5103750;28;20557;-66
2022/03/10 12:14:55;;;;;;;15.80;11.23;;;16.80;40.20;;;;;;5103777;28;20066;-67
2022/03/10 12:17:43;;;;;;;15.90;12.43;;;17.00;40.00;;;;;;5103798;28;20047;-66
2022/03/10 12:20:20;;;;;;;19.98;11.65;;;17.10;38.90;;;;;;5107224;28;20044;-66
2022/03/10 12:23:06;;;;;;;14.27;12.00;;;17.00;37.40;;;;;;5107002;28;20052;-66
2022/03/10 12:25:46;;;;;;;19.17;12.85;;;17.20;36.80;;;;;;5107639;28;20511;-67
2022/03/10 12:28:24;;;;;;;15.80;11.00;;;16.80;36.10;;;;;;5107387;28;20047;-66
2022/03/10 12:31:00;;;;;;;18.98;12.25;;;17.00;37.00;;;;;;5107214;28;20108;-66
2022/03/10 12:33:26;;;;;;;14.35;11.38;;;17.00;36.90;;;;;;5107275;28;20036;-66
2022/03/10 12:35:55;;;;;;;17.27;12.02;;;17.00;36.50;;;;;;5106660;28;20056;-65
2022/03/10 12:38:45;;;;;;;16.38;11.77;;;17.50;36.90;;;;;;5107131;28;20092;-65
2022/03/10 12:41:14;;;;;;;14.18;11.35;;;17.60;36.60;;;;;;5106795;28;20059;-66
2022/03/10 12:43:41;;;;;;;16.65;12.18;;;17.70;36.50;;;;;;5106994;28;20056;-66